Time;durP1;ratioP1;P1;durP2;ratioP2;P2;SDS_P1;SDS_P2;PMS_P1;PMS_P2;Temp;Humidity;BMP_temperature;BMP_pressure;BME280_temperature;BME280_humidity;BME280_pressure;Samples;Min_cycle;Max_cycle;Signal;HPM_P1;HPM_P2
2023/10/08 00:01:34;;;;;;;9.80;2.90;;;19.80;99.90;;;;;;5034271;28;20452;-73
2023/10/08 00:04:03;;;;;;;4.63;2.63;;;19.70;99.90;;;;;;5034198;28;20411;-74
2023/10/08 00:06:30;;;;;;;5.03;2.80;;;19.70;99.90;;;;;;5034178;28;20633;-74
2023/10/08 00:08:59;;;;;;;5.43;3.13;;;19.70;99.90;;;;;;5034028;28;20406;-73
2023/10/08 00:11:26;;;;;;;3.00;2.70;;;19.50;99.90;;;;;;5034138;28;20394;-73
2023/10/08 00:13:55;;;;;;;2.30;2.10;;;19.50;99.90;;;;;;5032866;28;20423;-73
2023/10/08 00:16:21;;;;;;;3.50;2.50;;;19.30;99.90;;;;;;5033871;28;20454;-73
2023/10/08 00:18:50;;;;;;;3.67;2.43;;;19.20;99.90;;;;;;5033829;28;20932;-74
2023/10/08 00:21:18;;;;;;;11.83;3.60;;;19.00;99.90;;;;;;5034062;28;20160;-73
2023/10/08 00:24:00;;;;;;;5.77;3.17;;;19.00;99.90;;;;;;5033905;28;20486;-73
2023/10/08 00:26:29;;;;;;;11.93;2.43;;;18.90;99.90;;;;;;5034084;28;20429;-73
2023/10/08 00:29:15;;;;;;;5.67;2.87;;;18.80;99.90;;;;;;5040307;28;20793;-74
2023/10/08 00:31:45;;;;;;;6.20;2.90;;;18.70;99.90;;;;;;5032043;28;20422;-73
2023/10/08 00:34:14;;;;;;;3.93;2.93;;;18.60;99.90;;;;;;5033574;28;20475;-74
2023/10/08 00:36:45;;;;;;;4.20;2.80;;;18.60;99.90;;;;;;5033556;28;20533;-74
2023/10/08 00:39:16;;;;;;;3.90;2.97;;;18.60;99.90;;;;;;5032765;28;20764;-74
2023/10/08 00:41:43;;;;;;;6.63;3.20;;;18.60;99.90;;;;;;5033639;28;20992;-73
2023/10/08 00:44:54;;;;;;;3.10;2.40;;;18.60;99.90;;;;;;5033583;28;20398;-73
2023/10/08 00:47:00;;;;;;;6.10;2.60;;;18.60;99.90;;;;;;5032941;28;20500;-73
2023/10/08 00:49:48;;;;;;;4.27;2.53;;;18.50;99.90;;;;;;5033314;28;20410;-74
2023/10/08 00:57:29;;;;;;;5.37;2.30;;;18.60;99.90;;;;;;5033064;28;20540;-74
2023/10/08 00:59:57;;;;;;;6.80;2.87;;;18.60;99.90;;;;;;5033312;28;20509;-73
2023/10/08 01:02:27;;;;;;;3.90;2.77;;;18.60;99.90;;;;;;5033220;28;20976;-73
2023/10/08 01:04:54;;;;;;;3.70;2.53;;;18.60;99.90;;;;;;5033299;28;20520;-73
2023/10/08 01:07:21;;;;;;;6.43;3.00;;;18.70;99.90;;;;;;5032854;28;20406;-74
2023/10/08 01:09:51;;;;;;;6.10;2.73;;;18.60;99.90;;;;;;5033101;28;20549;-73
2023/10/08 01:12:33;;;;;;;3.50;2.70;;;18.70;99.90;;;;;;5032890;28;20445;-74
2023/10/08 01:15:16;;;;;;;6.37;3.20;;;18.80;99.90;;;;;;5032942;28;20402;-73
2023/10/08 01:17:51;;;;;;;4.53;2.60;;;18.80;99.90;;;;;;5032689;28;20525;-73
2023/10/08 01:20:32;;;;;;;12.80;3.40;;;18.70;99.90;;;;;;5032637;28;20440;-73
2023/10/08 01:22:58;;;;;;;3.60;2.83;;;18.60;99.90;;;;;;5031515;28;20795;-74
2023/10/08 01:25:24;;;;;;;3.97;3.23;;;18.50;99.90;;;;;;5032551;28;20422;-74
2023/10/08 01:28:08;;;;;;;3.37;2.90;;;18.50;99.90;;;;;;5038454;28;20578;-73
2023/10/08 01:30:36;;;;;;;4.07;3.07;;;18.30;99.90;;;;;;5029214;28;20414;-73
2023/10/08 01:33:03;;;;;;;4.50;3.13;;;18.20;99.90;;;;;;5030020;28;21043;-73
2023/10/08 01:35:31;;;;;;;3.43;2.63;;;18.10;99.90;;;;;;5032106;28;20454;-73
2023/10/08 01:37:59;;;;;;;3.27;2.70;;;18.10;99.90;;;;;;5032345;28;20543;-74
2023/10/08 01:40:25;;;;;;;7.97;3.60;;;18.00;99.90;;;;;;5031059;28;20426;-73
2023/10/08 01:42:51;;;;;;;5.70;3.03;;;17.90;99.90;;;;;;5032420;28;20398;-73
2023/10/08 01:45:18;;;;;;;5.47;2.77;;;17.80;99.90;;;;;;5031046;28;20187;-73
2023/10/08 01:47:44;;;;;;;6.97;2.90;;;17.80;99.90;;;;;;5032017;28;20485;-73
2023/10/08 01:50:21;;;;;;;4.40;2.60;;;17.80;99.90;;;;;;5031352;28;20441;-73
2023/10/08 01:52:47;;;;;;;5.40;3.40;;;17.90;99.90;;;;;;5032276;28;20251;-74
2023/10/08 01:55:17;;;;;;;4.37;3.07;;;17.80;99.90;;;;;;5032144;28;20418;-73
2023/10/08 01:57:43;;;;;;;4.87;2.27;;;17.80;99.90;;;;;;5031935;28;20458;-74
2023/10/08 02:00:09;;;;;;;4.40;2.93;;;17.80;99.90;;;;;;5032194;28;20402;-74
2023/10/08 02:02:35;;;;;;;6.53;3.60;;;17.70;99.90;;;;;;5032105;28;20164;-73
2023/10/08 02:05:01;;;;;;;3.63;3.00;;;17.70;99.90;;;;;;5032013;28;20816;-74
2023/10/08 02:07:28;;;;;;;3.40;2.77;;;17.70;99.90;;;;;;5032052;28;20406;-74
2023/10/08 02:09:54;;;;;;;4.10;3.30;;;17.70;99.90;;;;;;5032345;28;20597;-73
2023/10/08 02:12:19;;;;;;;7.20;3.33;;;17.60;99.90;;;;;;5032237;28;20460;-74
2023/10/08 02:14:45;;;;;;;5.33;3.33;;;17.50;99.90;;;;;;5032379;28;20226;-74
2023/10/08 02:17:11;;;;;;;6.43;3.00;;;17.50;99.90;;;;;;5032295;28;20268;-73
2023/10/08 02:19:38;;;;;;;2.90;2.13;;;17.50;99.90;;;;;;5030675;28;20175;-73
2023/10/08 02:22:09;;;;;;;4.83;2.50;;;17.50;99.90;;;;;;5032138;28;20924;-73
2023/10/08 02:24:35;;;;;;;8.20;3.23;;;17.40;99.90;;;;;;5030768;28;20175;-73
2023/10/08 02:27:01;;;;;;;4.30;3.30;;;17.40;99.90;;;;;;5032179;28;20446;-73
2023/10/08 02:29:30;;;;;;;4.07;2.57;;;17.40;99.90;;;;;;5037138;28;20904;-73
2023/10/08 02:31:57;;;;;;;8.87;3.60;;;17.40;99.90;;;;;;5031751;28;20536;-73
2023/10/08 02:34:23;;;;;;;5.43;3.30;;;17.40;99.90;;;;;;5031859;28;20485;-73
2023/10/08 02:36:48;;;;;;;8.00;2.50;;;17.40;99.90;;;;;;5031491;28;20641;-73
2023/10/08 02:39:21;;;;;;;7.50;3.30;;;17.40;99.90;;;;;;5031615;28;20246;-73
2023/10/08 02:41:48;;;;;;;6.17;2.97;;;17.50;99.90;;;;;;5031745;28;20251;-73
2023/10/08 02:44:14;;;;;;;6.13;2.93;;;17.50;99.90;;;;;;5031779;28;20825;-73
2023/10/08 02:46:41;;;;;;;7.93;3.17;;;17.50;99.90;;;;;;5031675;28;20422;-73
2023/10/08 02:49:12;;;;;;;6.00;3.03;;;17.60;99.90;;;;;;5031533;28;20841;-73
2023/10/08 02:51:44;;;;;;;6.37;3.13;;;17.70;99.90;;;;;;5031557;28;20414;-73
2023/10/08 02:54:17;;;;;;;7.73;3.10;;;17.70;99.90;;;;;;5031612;28;20418;-74
2023/10/08 02:56:51;;;;;;;6.90;2.97;;;17.80;99.90;;;;;;5031400;28;20564;-73
2023/10/08 02:59:21;;;;;;;4.60;2.80;;;17.80;99.90;;;;;;5031473;28;20402;-73
2023/10/08 03:01:49;;;;;;;6.40;3.07;;;17.80;99.90;;;;;;5033181;28;20967;-73
2023/10/08 03:04:17;;;;;;;9.03;3.17;;;17.90;99.90;;;;;;5035388;28;20398;-73
2023/10/08 03:06:44;;;;;;;5.17;3.13;;;17.90;99.90;;;;;;5035293;28;20449;-73
2023/10/08 03:09:13;;;;;;;3.57;2.80;;;17.80;99.90;;;;;;5035241;28;20414;-73
2023/10/08 03:11:39;;;;;;;4.47;3.10;;;17.90;99.90;;;;;;5035294;28;20417;-74
2023/10/08 03:14:14;;;;;;;7.50;2.73;;;18.00;99.90;;;;;;5035543;28;21001;-73
2023/10/08 03:16:40;;;;;;;8.17;3.03;;;18.00;99.90;;;;;;5035089;28;20491;-73
2023/10/08 03:19:06;;;;;;;4.73;3.07;;;18.00;99.90;;;;;;5033692;28;20448;-73
2023/10/08 03:24:12;;;;;;;4.90;2.70;;;17.90;99.90;;;;;;5035290;28;20172;-73
2023/10/08 03:26:39;;;;;;;5.07;3.43;;;18.00;99.90;;;;;;5033485;28;20454;-73
2023/10/08 03:29:07;;;;;;;4.83;2.90;;;18.00;99.90;;;;;;5040732;28;20947;-73
2023/10/08 03:34:15;;;;;;;8.97;3.50;;;17.90;99.90;;;;;;5035159;28;20397;-73
2023/10/08 03:36:46;;;;;;;4.23;3.57;;;18.00;99.90;;;;;;5034575;28;20453;-73
2023/10/08 03:39:18;;;;;;;6.70;3.10;;;17.90;99.90;;;;;;5034669;28;20406;-73
2023/10/08 03:41:58;;;;;;;5.33;2.90;;;17.90;99.90;;;;;;5033513;28;20439;-73
2023/10/08 03:44:24;;;;;;;3.70;2.77;;;17.80;99.90;;;;;;5034761;28;20448;-73
2023/10/08 03:46:52;;;;;;;5.87;3.30;;;17.80;99.90;;;;;;5034588;28;20431;-73
2023/10/08 03:51:48;;;;;;;6.57;2.90;;;17.80;99.90;;;;;;5034547;28;20576;-73
2023/10/08 03:54:17;;;;;;;7.03;2.70;;;17.70;99.90;;;;;;5034509;28;20804;-73
2023/10/08 03:56:48;;;;;;;6.40;3.20;;;17.70;99.90;;;;;;5034200;28;20543;-74
2023/10/08 03:59:20;;;;;;;5.30;3.00;;;17.70;99.90;;;;;;5033070;28;20409;-74
2023/10/08 04:01:48;;;;;;;6.37;3.70;;;17.70;99.90;;;;;;5034440;28;20394;-73
2023/10/08 04:04:14;;;;;;;7.17;3.20;;;17.70;99.90;;;;;;5034197;28;20924;-73
2023/10/08 04:06:51;;;;;;;6.20;3.20;;;17.70;99.90;;;;;;5034101;28;20422;-73
2023/10/08 04:09:23;;;;;;;6.50;3.23;;;17.70;99.90;;;;;;5034185;28;20168;-73
2023/10/08 04:14:16;;;;;;;3.63;2.70;;;17.70;99.90;;;;;;5033265;28;20406;-73
2023/10/08 04:16:42;;;;;;;7.17;3.10;;;17.60;99.90;;;;;;5033938;28;20459;-73
2023/10/08 04:19:09;;;;;;;6.63;3.17;;;17.60;99.90;;;;;;5033967;28;20168;-73
2023/10/08 04:21:34;;;;;;;4.13;2.60;;;17.70;99.90;;;;;;5033980;28;20402;-73
2023/10/08 04:24:08;;;;;;;3.97;2.37;;;17.60;99.90;;;;;;5039832;28;20428;-73
2023/10/08 04:26:34;;;;;;;4.87;3.77;;;17.50;99.90;;;;;;5041642;28;20191;-73
2023/10/08 04:29:02;;;;;;;5.40;2.73;;;17.50;99.90;;;;;;5038565;28;20955;-73
2023/10/08 04:31:37;;;;;;;4.37;2.80;;;17.50;99.90;;;;;;5038606;28;20905;-73
2023/10/08 04:34:09;;;;;;;3.77;2.80;;;17.50;99.90;;;;;;5033688;28;20402;-73
2023/10/08 04:36:38;;;;;;;4.47;2.57;;;17.60;99.90;;;;;;5033571;28;20889;-73
2023/10/08 04:39:13;;;;;;;4.83;2.63;;;17.50;99.90;;;;;;5033538;28;20892;-73
2023/10/08 04:41:45;;;;;;;3.53;3.00;;;17.50;99.90;;;;;;5033755;28;20394;-73
2023/10/08 04:44:15;;;;;;;3.97;3.20;;;17.40;99.90;;;;;;5033572;28;20414;-73
2023/10/08 04:46:51;;;;;;;4.90;2.90;;;17.40;99.90;;;;;;5033352;28;20467;-72
2023/10/08 04:49:30;;;;;;;6.00;3.87;;;17.30;99.90;;;;;;5033317;28;20833;-73
2023/10/08 04:51:57;;;;;;;6.50;2.60;;;17.20;99.90;;;;;;5033429;28;20405;-72
2023/10/08 04:54:29;;;;;;;6.07;3.27;;;17.20;99.90;;;;;;5033385;28;20413;-73
2023/10/08 04:56:59;;;;;;;6.23;3.73;;;17.20;99.90;;;;;;5033115;28;20970;-73
2023/10/08 04:59:35;;;;;;;5.50;2.93;;;17.20;99.90;;;;;;5033334;28;20810;-73
2023/10/08 05:07:17;;;;;;;4.87;3.03;;;17.20;99.90;;;;;;5033166;28;20434;-73
2023/10/08 05:12:37;;;;;;;3.87;2.67;;;17.10;99.90;;;;;;5033092;28;20477;-73
2023/10/08 05:28:29;;;;;;;8.70;3.47;;;16.80;99.90;;;;;;5037113;28;20486;-73
2023/10/08 05:31:11;;;;;;;6.30;3.30;;;16.70;99.90;;;;;;5034729;28;20480;-73
2023/10/08 05:36:18;;;;;;;4.17;3.20;;;16.80;99.90;;;;;;5032425;28;20426;-73
2023/10/08 05:38:59;;;;;;;9.40;2.90;;;16.80;99.90;;;;;;5032480;28;20398;-73
2023/10/08 05:41:28;;;;;;;6.67;3.00;;;16.70;99.90;;;;;;5032568;28;20398;-73
2023/10/08 05:44:14;;;;;;;6.97;2.90;;;16.70;99.90;;;;;;5032479;28;20410;-73
2023/10/08 05:46:49;;;;;;;4.20;3.03;;;16.70;99.90;;;;;;5032328;28;20437;-73
2023/10/08 05:51:56;;;;;;;4.13;2.80;;;16.80;99.90;;;;;;5032545;28;20407;-73
2023/10/08 06:13:13;;;;;;;7.13;2.63;;;16.80;99.90;;;;;;5032090;28;20405;-71
2023/10/08 06:18:28;;;;;;;6.33;4.17;;;16.90;99.90;;;;;;5032029;28;20458;-72
2023/10/08 06:21:07;;;;;;;6.97;4.80;;;17.00;99.90;;;;;;5032268;28;20882;-71
2023/10/08 06:23:35;;;;;;;4.50;3.50;;;17.00;99.90;;;;;;5031879;28;20413;-71
2023/10/08 06:28:38;;;;;;;4.50;2.70;;;17.10;99.90;;;;;;5032711;28;20912;-72
2023/10/08 06:31:06;;;;;;;4.30;3.17;;;17.20;99.90;;;;;;5032771;28;20442;-72
2023/10/08 06:33:33;;;;;;;4.00;2.67;;;17.20;99.90;;;;;;5031668;28;20414;-72
2023/10/08 06:36:02;;;;;;;4.87;2.90;;;17.30;99.90;;;;;;5030827;28;20423;-72
2023/10/08 06:38:38;;;;;;;7.20;4.97;;;17.20;99.90;;;;;;5034554;28;20421;-72
2023/10/08 06:43:46;;;;;;;6.20;3.20;;;17.30;99.90;;;;;;5028090;28;20402;-70
2023/10/08 06:46:12;;;;;;;6.63;3.03;;;17.40;99.90;;;;;;5035704;28;20843;-72
2023/10/08 06:48:45;;;;;;;4.47;2.87;;;17.50;99.90;;;;;;5035629;28;20481;-71
2023/10/08 06:51:17;;;;;;;9.57;3.90;;;17.50;99.90;;;;;;5037923;28;20266;-70
2023/10/08 06:53:44;;;;;;;3.53;2.93;;;17.70;99.90;;;;;;5039465;28;20398;-70
2023/10/08 06:56:14;;;;;;;6.37;3.40;;;17.70;99.90;;;;;;5035111;28;20848;-70
2023/10/08 06:58:52;;;;;;;5.10;3.83;;;17.80;99.90;;;;;;5018043;28;20425;-71
2023/10/08 07:01:24;;;;;;;6.87;3.00;;;17.90;99.90;;;;;;5035631;28;20398;-70
2023/10/08 07:03:51;;;;;;;8.07;3.90;;;18.00;99.90;;;;;;5035443;28;20417;-70
2023/10/08 07:06:25;;;;;;;4.53;3.33;;;18.20;99.90;;;;;;5037994;28;20438;-70
2023/10/08 07:08:54;;;;;;;6.77;4.10;;;18.30;99.90;;;;;;5035233;28;20436;-70
2023/10/08 07:11:21;;;;;;;5.43;2.53;;;18.30;99.90;;;;;;5034747;28;20928;-71
2023/10/08 07:13:46;;;;;;;7.20;3.70;;;18.40;99.90;;;;;;5035290;28;20479;-71
2023/10/08 07:16:12;;;;;;;5.87;3.47;;;18.40;99.90;;;;;;5037468;28;20893;-71
2023/10/08 07:18:38;;;;;;;4.60;3.30;;;18.40;99.90;;;;;;5035040;28;20170;-72
2023/10/08 07:21:12;;;;;;;8.87;5.07;;;18.30;99.90;;;;;;5035210;28;20160;-71
2023/10/08 07:23:55;;;;;;;4.33;2.97;;;18.30;99.90;;;;;;5035229;28;20893;-71
2023/10/08 07:26:24;;;;;;;5.90;3.10;;;18.40;99.90;;;;;;5038568;28;20468;-72
2023/10/08 07:28:51;;;;;;;5.93;3.17;;;18.50;99.90;;;;;;5042772;28;20422;-72
2023/10/08 07:31:23;;;;;;;7.20;3.17;;;18.60;99.90;;;;;;5034899;28;20406;-72
2023/10/08 07:33:56;;;;;;;5.77;2.80;;;18.80;99.90;;;;;;5027935;28;20489;-71
2023/10/08 07:36:27;;;;;;;4.87;3.07;;;19.10;99.90;;;;;;5034710;28;20453;-70
2023/10/08 07:38:55;;;;;;;4.70;2.00;;;19.30;99.90;;;;;;5034748;28;20422;-71
2023/10/08 07:41:21;;;;;;;5.87;3.03;;;19.60;99.90;;;;;;5034815;28;20402;-72
2023/10/08 07:43:57;;;;;;;7.57;3.70;;;19.70;99.90;;;;;;5033513;28;20845;-71
2023/10/08 07:46:23;;;;;;;4.63;3.50;;;20.00;99.90;;;;;;5032717;28;20313;-71
2023/10/08 07:48:50;;;;;;;6.63;3.23;;;20.30;99.90;;;;;;5031054;28;20501;-71
2023/10/08 07:51:17;;;;;;;4.67;3.30;;;20.60;99.90;;;;;;5034489;28;20176;-71
2023/10/08 07:53:43;;;;;;;3.83;2.47;;;21.00;99.90;;;;;;5040333;28;20407;-71
2023/10/08 07:56:10;;;;;;;5.93;4.27;;;21.40;99.90;;;;;;5040542;28;20457;-71
2023/10/08 07:58:36;;;;;;;5.80;3.57;;;21.70;99.90;;;;;;5040864;28;20171;-71
2023/10/08 08:01:06;;;;;;;5.90;2.80;;;22.00;99.90;;;;;;5034261;28;20467;-70
2023/10/08 08:03:31;;;;;;;8.10;3.50;;;22.40;99.90;;;;;;5034211;28;20407;-71
2023/10/08 08:05:58;;;;;;;4.60;3.40;;;22.80;99.90;;;;;;5038029;28;20441;-72
2023/10/08 08:08:27;;;;;;;6.40;3.20;;;23.20;99.90;;;;;;5033916;28;20682;-70
2023/10/08 08:10:57;;;;;;;3.83;2.53;;;23.50;99.90;;;;;;5033672;28;20410;-71
2023/10/08 08:13:27;;;;;;;8.13;3.67;;;23.70;99.90;;;;;;5034129;28;20410;-71
2023/10/08 08:15:58;;;;;;;4.30;2.90;;;23.80;99.90;;;;;;5033875;28;20829;-71
2023/10/08 08:18:32;;;;;;;8.43;3.83;;;23.90;99.90;;;;;;5033882;28;20453;-71
2023/10/08 08:21:01;;;;;;;6.20;3.63;;;24.00;99.90;;;;;;5034060;28;20406;-70
2023/10/08 08:23:31;;;;;;;5.30;3.00;;;24.40;99.90;;;;;;5033971;28;20398;-71
2023/10/08 08:28:28;;;;;;;5.83;3.43;;;24.80;99.90;;;;;;5033857;28;20410;-71
2023/10/08 08:30:55;;;;;;;7.47;4.37;;;25.00;99.90;;;;;;5033793;28;20455;-72
2023/10/08 08:33:24;;;;;;;4.60;3.00;;;25.10;99.90;;;;;;5033762;28;20398;-71
2023/10/08 08:36:00;;;;;;;3.60;2.70;;;25.00;99.90;;;;;;5033646;28;20830;-72
2023/10/08 08:38:26;;;;;;;5.20;2.80;;;25.00;99.90;;;;;;5033440;28;20572;-72
2023/10/08 08:41:09;;;;;;;7.03;3.10;;;24.90;99.90;;;;;;5033651;28;20404;-71
2023/10/08 08:43:35;;;;;;;4.40;3.27;;;24.90;99.90;;;;;;5033493;28;20896;-72
2023/10/08 08:46:05;;;;;;;7.63;3.43;;;24.80;99.90;;;;;;5033514;28;20480;-72
2023/10/08 08:48:33;;;;;;;7.03;3.67;;;24.80;99.90;;;;;;5033419;28;20402;-71
2023/10/08 08:50:59;;;;;;;9.30;3.67;;;24.70;99.90;;;;;;5033477;28;20411;-71
2023/10/08 08:53:26;;;;;;;8.10;4.10;;;24.70;99.90;;;;;;5032184;28;20410;-71
2023/10/08 08:55:54;;;;;;;6.57;3.40;;;24.80;99.90;;;;;;5033135;28;20445;-71
2023/10/08 08:58:22;;;;;;;9.60;6.00;;;24.90;99.90;;;;;;5032874;28;20496;-70
2023/10/08 09:00:49;;;;;;;6.17;4.77;;;24.90;99.90;;;;;;5032769;28;20411;-71
2023/10/08 09:03:15;;;;;;;10.27;5.90;;;24.90;99.90;;;;;;5031967;28;20863;-71
2023/10/08 09:05:42;;;;;;;7.00;3.97;;;24.90;99.90;;;;;;5033116;28;20505;-70
2023/10/08 09:08:09;;;;;;;6.43;3.60;;;24.90;99.90;;;;;;5033231;28;20619;-70
2023/10/08 09:10:51;;;;;;;4.47;3.00;;;24.90;99.90;;;;;;5033166;28;20403;-70
2023/10/08 09:13:23;;;;;;;9.43;4.10;;;24.90;99.90;;;;;;5033095;28;20445;-71
2023/10/08 09:15:51;;;;;;;8.90;5.30;;;24.90;99.90;;;;;;5032809;28;20418;-70
2023/10/08 09:18:17;;;;;;;10.37;4.40;;;25.00;99.90;;;;;;5032683;28;20449;-71
2023/10/08 09:20:43;;;;;;;5.30;4.20;;;25.20;99.90;;;;;;5032942;28;20459;-72
2023/10/08 09:23:13;;;;;;;3.00;2.70;;;25.40;99.90;;;;;;5032828;28;20156;-70
2023/10/08 09:25:40;;;;;;;6.43;3.90;;;25.70;99.90;;;;;;5032782;28;20263;-70
2023/10/08 09:28:07;;;;;;;6.70;5.57;;;26.10;99.60;;;;;;5032490;28;20406;-72
2023/10/08 09:30:39;;;;;;;8.97;4.40;;;26.60;98.10;;;;;;5032686;28;20417;-72
2023/10/08 09:33:10;;;;;;;5.73;3.90;;;27.00;96.30;;;;;;5032670;28;20410;-70
2023/10/08 09:35:36;;;;;;;6.43;3.53;;;27.50;95.10;;;;;;5032526;28;20437;-71
2023/10/08 09:38:09;;;;;;;7.60;3.87;;;27.80;93.60;;;;;;5032390;28;20775;-71
2023/10/08 09:40:40;;;;;;;5.97;3.07;;;28.00;91.80;;;;;;5032619;28;20473;-71
2023/10/08 09:43:08;;;;;;;8.30;4.63;;;27.90;90.30;;;;;;5032475;28;20399;-71
2023/10/08 09:45:34;;;;;;;7.50;3.93;;;27.80;88.50;;;;;;5031265;28;20484;-71
2023/10/08 09:48:03;;;;;;;5.33;3.70;;;27.60;88.10;;;;;;5032288;28;20402;-71
2023/10/08 09:50:32;;;;;;;8.43;4.70;;;27.30;87.40;;;;;;5032308;28;20962;-70
2023/10/08 09:53:07;;;;;;;6.43;4.33;;;27.10;88.00;;;;;;5031025;28;20410;-71
2023/10/08 09:55:33;;;;;;;10.93;4.50;;;26.90;89.60;;;;;;5032075;28;20433;-71
2023/10/08 09:57:59;;;;;;;9.53;4.73;;;26.80;90.10;;;;;;5030628;28;20458;-71
2023/10/08 10:00:33;;;;;;;8.47;5.13;;;26.70;90.20;;;;;;5032219;28;20202;-70
2023/10/08 10:03:01;;;;;;;7.07;4.10;;;26.50;90.30;;;;;;5032175;28;20251;-71
2023/10/08 10:05:30;;;;;;;7.00;3.93;;;26.30;90.70;;;;;;5032070;28;20960;-71
2023/10/08 10:07:56;;;;;;;8.57;5.17;;;26.20;90.70;;;;;;5032064;28;20398;-71
2023/10/08 10:10:31;;;;;;;11.40;4.70;;;26.10;91.20;;;;;;5031653;28;20417;-71
2023/10/08 10:12:59;;;;;;;12.97;3.93;;;26.10;91.90;;;;;;5031785;28;20397;-70
2023/10/08 10:15:25;;;;;;;8.93;3.93;;;26.30;92.60;;;;;;5030526;28;20438;-72
2023/10/08 10:17:51;;;;;;;6.40;3.80;;;26.50;92.30;;;;;;5031773;28;20567;-71
2023/10/08 10:20:18;;;;;;;7.13;3.70;;;26.60;91.80;;;;;;5031983;28;20160;-71
2023/10/08 10:22:45;;;;;;;8.83;5.50;;;26.60;91.80;;;;;;5032122;28;20905;-72
2023/10/08 10:25:17;;;;;;;7.90;4.30;;;26.70;91.80;;;;;;5031798;28;20410;-70
2023/10/08 10:27:58;;;;;;;7.80;5.73;;;26.80;91.60;;;;;;5031678;28;20755;-72
2023/10/08 10:30:27;;;;;;;7.07;4.87;;;26.80;91.30;;;;;;5030599;28;20913;-72
2023/10/08 10:32:53;;;;;;;6.57;3.97;;;26.80;91.30;;;;;;5031771;28;20430;-72
2023/10/08 10:35:19;;;;;;;8.53;3.60;;;26.80;91.00;;;;;;5031765;28;20433;-72
2023/10/08 10:37:52;;;;;;;4.53;3.67;;;26.70;91.00;;;;;;5031603;28;20458;-72
2023/10/08 10:40:57;;;;;;;9.23;4.30;;;26.70;91.30;;;;;;5031740;28;20460;-72
2023/10/08 10:43:20;;;;;;;5.40;3.80;;;26.70;91.70;;;;;;5030577;28;20498;-71
2023/10/08 10:45:47;;;;;;;7.73;4.53;;;26.80;92.20;;;;;;5031683;28;20437;-72
2023/10/08 10:48:21;;;;;;;10.37;4.30;;;26.90;91.50;;;;;;5031551;28;20465;-72
2023/10/08 10:53:33;;;;;;;8.43;4.30;;;26.70;90.90;;;;;;5031856;28;20441;-71
2023/10/08 10:56:09;;;;;;;7.40;4.20;;;26.60;91.10;;;;;;5031417;28;20448;-72
2023/10/08 10:58:41;;;;;;;7.27;4.40;;;26.60;91.30;;;;;;5031446;28;20496;-72
2023/10/08 11:04:05;;;;;;;8.10;5.80;;;26.60;91.90;;;;;;5031116;28;20517;-70
2023/10/08 11:06:33;;;;;;;9.57;4.67;;;26.70;92.10;;;;;;5030719;28;20499;-71
2023/10/08 11:08:58;;;;;;;9.10;4.37;;;26.70;92.00;;;;;;5030063;28;20500;-71
2023/10/08 11:11:28;;;;;;;9.30;4.23;;;26.90;92.00;;;;;;5042374;28;20987;-72
2023/10/08 11:14:00;;;;;;;7.37;4.10;;;27.30;91.90;;;;;;5023263;28;20654;-70
2023/10/08 11:16:26;;;;;;;6.07;3.97;;;27.90;91.60;;;;;;5030121;28;20435;-71
2023/10/08 11:18:57;;;;;;;3.67;3.37;;;28.70;90.70;;;;;;5033930;28;20418;-71
2023/10/08 11:21:24;;;;;;;9.87;4.50;;;29.80;88.20;;;;;;5031213;28;20768;-71
2023/10/08 11:23:53;;;;;;;9.30;4.90;;;31.30;85.00;;;;;;5033004;28;20405;-71
2023/10/08 11:26:19;;;;;;;6.53;4.43;;;33.00;78.50;;;;;;5033630;28;20529;-71
2023/10/08 11:28:49;;;;;;;6.73;4.83;;;35.70;71.40;;;;;;5039767;28;20429;-71
2023/10/08 11:31:19;;;;;;;7.10;4.97;;;38.50;55.80;;;;;;5043247;28;20433;-72
2023/10/08 11:33:54;;;;;;;8.90;5.57;;;41.00;47.70;;;;;;5033959;28;20410;-72
2023/10/08 11:36:24;;;;;;;6.83;6.00;;;42.70;41.10;;;;;;5041205;28;20976;-72
2023/10/08 11:38:53;;;;;;;6.13;5.23;;;43.80;38.20;;;;;;5039532;28;20422;-71
2023/10/08 11:41:21;;;;;;;9.00;6.77;;;45.20;35.20;;;;;;5039353;28;20380;-71
2023/10/08 11:43:48;;;;;;;6.77;6.07;;;46.20;32.20;;;;;;5046931;28;20414;-71
2023/10/08 11:46:18;;;;;;;6.30;4.97;;;46.80;30.20;;;;;;5034504;28;20786;-70
2023/10/08 11:48:46;;;;;;;7.07;5.40;;;47.50;29.40;;;;;;5049553;28;20427;-71
2023/10/08 11:51:16;;;;;;;9.33;6.47;;;48.20;28.30;;;;;;5060660;28;20426;-71
2023/10/08 11:53:44;;;;;;;8.43;5.93;;;48.40;27.30;;;;;;5046386;28;20449;-70
2023/10/08 11:56:13;;;;;;;7.20;6.37;;;48.00;27.20;;;;;;5036823;28;20454;-70
2023/10/08 11:58:43;;;;;;;6.40;5.63;;;48.10;26.70;;;;;;5046239;28;20461;-70
2023/10/08 12:01:15;;;;;;;8.77;5.67;;;48.50;26.80;;;;;;5046376;28;20396;-70
2023/10/08 12:03:43;;;;;;;7.10;5.33;;;48.90;26.40;;;;;;5039869;28;20508;-70
2023/10/08 12:06:18;;;;;;;8.87;6.47;;;48.30;25.70;;;;;;5036015;28;20419;-69
2023/10/08 12:08:47;;;;;;;7.23;5.50;;;46.60;25.60;;;;;;5034491;28;20384;-68
2023/10/08 12:11:14;;;;;;;7.20;5.47;;;44.70;26.50;;;;;;5034005;28;20442;-70
2023/10/08 12:13:44;;;;;;;11.23;6.23;;;43.40;27.20;;;;;;5034194;28;20388;-70
2023/10/08 12:16:23;;;;;;;8.07;6.70;;;42.00;28.10;;;;;;5034043;28;20425;-70
2023/10/08 12:18:53;;;;;;;8.00;6.17;;;40.30;28.60;;;;;;5034029;28;20421;-71
2023/10/08 12:21:21;;;;;;;7.20;5.37;;;38.50;29.70;;;;;;5034167;28;20409;-67
2023/10/08 12:23:49;;;;;;;11.70;6.30;;;36.90;31.80;;;;;;5034027;28;20794;-69
2023/10/08 12:26:21;;;;;;;7.03;5.30;;;35.40;32.90;;;;;;5033906;28;20423;-67
2023/10/08 12:28:48;;;;;;;8.90;4.90;;;34.10;34.80;;;;;;5034476;28;21004;-69
2023/10/08 12:31:21;;;;;;;6.97;5.90;;;33.00;36.60;;;;;;5034133;28;20485;-67
2023/10/08 12:33:48;;;;;;;7.53;5.40;;;32.00;38.00;;;;;;5033016;28;20407;-68
2023/10/08 12:36:16;;;;;;;9.60;6.40;;;31.20;39.70;;;;;;5032240;28;21007;-69
2023/10/08 12:38:43;;;;;;;9.27;5.10;;;30.40;41.10;;;;;;5033509;28;20411;-70
2023/10/08 12:41:12;;;;;;;9.47;5.20;;;29.80;42.60;;;;;;5033764;28;20923;-70
2023/10/08 12:43:39;;;;;;;10.40;5.57;;;29.30;43.90;;;;;;5032502;28;20398;-70
2023/10/08 12:46:10;;;;;;;9.10;5.43;;;28.80;45.00;;;;;;5037699;28;20430;-70
2023/10/08 12:48:36;;;;;;;12.43;6.63;;;28.30;46.20;;;;;;5033356;28;20398;-70
2023/10/08 12:51:05;;;;;;;9.30;5.60;;;27.70;47.70;;;;;;5033498;28;20425;-67
2023/10/08 12:53:34;;;;;;;6.90;5.77;;;27.20;49.20;;;;;;5033405;28;20474;-69
2023/10/08 12:56:14;;;;;;;7.60;5.67;;;26.80;50.80;;;;;;5033265;28;20507;-69
2023/10/08 12:58:48;;;;;;;9.97;5.90;;;26.50;52.50;;;;;;5033188;28;20963;-69
2023/10/08 13:01:17;;;;;;;8.47;5.23;;;26.10;56.10;;;;;;5033390;28;20398;-67
2023/10/08 13:03:47;;;;;;;8.10;4.93;;;26.00;58.70;;;;;;5033321;28;20408;-68
2023/10/08 13:06:22;;;;;;;9.80;5.20;;;26.00;63.50;;;;;;5032996;28;20434;-68
2023/10/08 13:08:52;;;;;;;6.43;5.20;;;26.10;65.70;;;;;;5032998;28;20763;-68
2023/10/08 13:11:24;;;;;;;6.13;5.30;;;26.10;67.40;;;;;;5033195;28;20893;-67
2023/10/08 13:13:51;;;;;;;13.63;6.57;;;26.20;69.80;;;;;;5033217;28;20901;-69
2023/10/08 13:16:17;;;;;;;11.03;6.00;;;27.20;73.30;;;;;;5033027;28;20925;-69
2023/10/08 13:18:43;;;;;;;15.20;8.40;;;28.20;66.80;;;;;;5032664;28;20418;-70
2023/10/08 13:21:10;;;;;;;10.83;7.60;;;28.50;60.30;;;;;;5032972;28;20912;-70
2023/10/08 13:23:36;;;;;;;10.30;6.73;;;28.00;59.80;;;;;;5032838;28;20418;-68
2023/10/08 13:26:04;;;;;;;7.03;5.30;;;27.70;59.90;;;;;;5031773;28;20810;-68
2023/10/08 13:28:30;;;;;;;7.10;5.30;;;27.50;61.00;;;;;;5032592;28;20490;-68
2023/10/08 13:30:55;;;;;;;13.40;6.70;;;27.20;62.40;;;;;;5032868;28;20493;-69
2023/10/08 13:33:24;;;;;;;6.73;4.87;;;26.90;63.50;;;;;;5032697;28;20414;-69
2023/10/08 13:35:51;;;;;;;10.53;5.80;;;26.80;65.10;;;;;;5032634;28;20689;-68
2023/10/08 13:38:19;;;;;;;9.90;5.60;;;26.60;66.40;;;;;;5038282;28;20550;-70
2023/10/08 13:41:04;;;;;;;11.60;6.63;;;26.20;68.90;;;;;;5033008;28;20414;-68
2023/10/08 13:43:33;;;;;;;20.50;7.73;;;26.20;71.30;;;;;;5032367;28;20414;-69
2023/10/08 13:46:04;;;;;;;10.30;6.70;;;27.40;77.00;;;;;;5024442;28;20572;-69
2023/10/08 13:48:40;;;;;;;8.60;6.50;;;28.50;68.30;;;;;;5031895;28;20559;-69
2023/10/08 13:51:13;;;;;;;11.87;5.30;;;28.60;65.00;;;;;;5037769;28;20406;-69
2023/10/08 13:53:45;;;;;;;9.07;5.97;;;28.30;63.30;;;;;;5032281;28;20414;-70
2023/10/08 13:56:11;;;;;;;12.00;6.70;;;28.10;64.20;;;;;;5033292;28;20500;-70
2023/10/08 13:58:46;;;;;;;7.93;5.20;;;28.30;67.00;;;;;;5050137;28;20473;-69
2023/10/08 14:01:21;;;;;;;14.70;7.73;;;29.30;68.60;;;;;;5044310;28;20464;-70
2023/10/08 14:03:48;;;;;;;9.23;5.63;;;30.50;62.80;;;;;;5044614;28;20437;-69
2023/10/08 14:06:16;;;;;;;13.07;8.50;;;31.00;59.40;;;;;;5035746;28;20492;-69
2023/10/08 14:08:43;;;;;;;11.50;5.80;;;30.90;56.20;;;;;;5038726;28;20834;-69
2023/10/08 14:11:12;;;;;;;12.03;8.73;;;30.70;56.50;;;;;;5042180;28;20428;-69
2023/10/08 14:13:38;;;;;;;7.70;5.43;;;30.10;55.60;;;;;;5034740;28;20540;-69
2023/10/08 14:16:08;;;;;;;8.73;5.40;;;29.80;56.40;;;;;;5031701;28;21043;-69